Time;durP1;ratioP1;P1;durP2;ratioP2;P2;SDS_P1;SDS_P2;PMS_P1;PMS_P2;Temp;Humidity;BMP_temperature;BMP_pressure;BME280_temperature;BME280_humidity;BME280_pressure;Samples;Min_cycle;Max_cycle;Signal;HPM_P1;HPM_P2
2020/12/02 00:02:29;;;;;;;28.88;24.77;;;;;;;3.62;87.26;100285.91;5094818;28;20051;-86
2020/12/02 00:05:35;;;;;;;29.42;24.98;;;;;;;3.61;87.05;100289.50;5071738;28;20393;-87
2020/12/02 00:08:46;;;;;;;31.70;26.08;;;;;;;3.58;87.04;100284.41;5083016;28;20067;-86
2020/12/02 00:11:51;;;;;;;30.83;26.52;;;;;;;3.51;87.11;100286.53;5094697;28;20051;-85
2020/12/02 00:14:55;;;;;;;30.27;24.45;;;;;;;3.58;87.21;100276.44;5094640;28;20143;-87
2020/12/02 00:18:01;;;;;;;30.42;25.45;;;;;;;3.54;87.31;100291.66;5094810;28;20051;-87
2020/12/02 00:21:06;;;;;;;31.55;26.45;;;;;;;3.54;86.78;100289.00;5094998;28;20059;-86
2020/12/02 00:24:11;;;;;;;30.10;25.55;;;;;;;3.54;86.83;100293.47;5095420;28;20055;-86
2020/12/02 00:27:28;;;;;;;28.58;25.42;;;;;;;3.46;86.95;100293.91;5094615;28;20047;-86
2020/12/02 00:30:36;;;;;;;27.25;24.25;;;;;;;3.40;86.88;100294.31;5082881;28;20051;-86
2020/12/02 00:33:41;;;;;;;29.80;25.25;;;;;;;3.29;87.02;100302.03;5082482;28;20060;-87
2020/12/02 00:36:46;;;;;;;29.25;24.85;;;;;;;3.31;87.15;100307.25;5094187;28;20039;-87
2020/12/02 00:39:50;;;;;;;31.70;26.23;;;;;;;3.28;87.29;100293.22;5093955;28;20039;-86
2020/12/02 00:42:54;;;;;;;29.08;24.30;;;;;;;3.16;87.55;100303.72;5082456;28;20527;-87
2020/12/02 00:46:00;;;;;;;28.63;25.15;;;;;;;3.10;87.96;100294.31;5082652;28;20047;-87
2020/12/02 00:49:05;;;;;;;30.35;25.90;;;;;;;3.14;88.20;100290.53;5082247;28;20047;-86
2020/12/02 00:52:10;;;;;;;29.77;26.17;;;;;;;3.17;88.52;100293.00;5093704;28;20050;-87
2020/12/02 00:55:14;;;;;;;30.60;24.95;;;;;;;3.24;88.05;100289.03;5082232;28;20496;-86
2020/12/02 00:58:41;;;;;;;30.05;24.85;;;;;;;3.21;88.06;100286.56;5082436;28;20059;-86
2020/12/02 01:02:10;;;;;;;30.38;25.73;;;;;;;3.12;88.19;100281.81;5093845;28;20042;-86
2020/12/02 01:05:16;;;;;;;31.45;27.00;;;;;;;3.14;88.12;100285.22;5082248;28;20046;-86
2020/12/02 01:08:28;;;;;;;32.35;26.90;;;;;;;3.12;88.08;100283.59;5059351;28;20122;-86
2020/12/02 01:11:32;;;;;;;33.63;27.45;;;;;;;3.10;88.20;100275.75;5081560;28;20054;-87
2020/12/02 01:14:36;;;;;;;34.45;28.13;;;;;;;3.05;88.69;100280.47;5093661;28;20055;-88
2020/12/02 01:17:41;;;;;;;33.35;27.25;;;;;;;3.05;88.95;100275.16;5081885;28;20051;-85
2020/12/02 01:20:46;;;;;;;36.72;28.48;;;;;;;3.02;89.28;100277.97;5082703;28;20118;-86
2020/12/02 01:23:58;;;;;;;33.15;27.83;;;;;;;3.04;89.08;100280.53;5082303;28;20079;-85
2020/12/02 01:27:18;;;;;;;31.85;28.10;;;;;;;3.03;89.10;100289.44;5094098;28;20059;-87
2020/12/02 01:30:23;;;;;;;33.92;27.60;;;;;;;2.92;89.51;100284.75;5081740;28;20051;-87
2020/12/02 01:33:27;;;;;;;31.10;27.33;;;;;;;2.91;89.49;100296.31;5093396;28;20070;-85
2020/12/02 01:36:52;;;;;;;31.05;27.08;;;;;;;2.95;89.50;100289.88;5081480;28;20051;-87
2020/12/02 01:40:11;;;;;;;;;;;;;;;2.95;89.52;100289.03;5082090;28;20377;-87
2020/12/02 01:43:15;;;;;;;31.58;26.27;;;;;;;3.00;89.42;100292.25;5081557;28;19916;-86
2020/12/02 01:46:33;;;;;;;30.52;26.38;;;;;;;3.04;89.23;100297.28;5093083;28;20389;-85
2020/12/02 01:49:41;;;;;;;31.77;26.17;;;;;;;3.06;89.05;100291.94;5069943;28;20047;-86
2020/12/02 01:53:01;;;;;;;29.58;24.65;;;;;;;3.02;88.91;100291.22;5081473;28;20051;-86
2020/12/02 01:56:24;;;;;;;32.08;25.23;;;;;;;3.01;88.64;100276.25;5081427;28;20051;-86
2020/12/02 01:59:52;;;;;;;32.25;24.77;;;;;;;2.84;88.36;100272.91;5081640;28;20047;-86
2020/12/02 02:03:13;;;;;;;29.88;25.02;;;;;;;2.89;88.09;100270.84;5069983;28;20507;-85
2020/12/02 02:06:31;;;;;;;28.60;24.40;;;;;;;2.77;87.99;100274.16;5081415;28;20051;-85
2020/12/02 02:09:36;;;;;;;28.25;24.35;;;;;;;2.80;87.68;100271.34;5069634;28;20047;-87
2020/12/02 02:12:55;;;;;;;27.98;23.95;;;;;;;2.75;87.59;100273.41;5104431;28;20047;-87
2020/12/02 02:16:06;;;;;;;28.10;24.20;;;;;;;2.57;87.54;100268.22;5081484;28;20055;-86
2020/12/02 02:19:19;;;;;;;30.38;25.80;;;;;;;2.45;87.90;100265.41;5081553;28;20090;-87
2020/12/02 02:22:23;;;;;;;27.92;24.00;;;;;;;2.48;88.12;100266.09;5081837;28;20043;-86
2020/12/02 02:25:27;;;;;;;30.27;25.70;;;;;;;2.45;87.78;100262.75;5082427;28;20055;-85
2020/12/02 02:28:35;;;;;;;31.55;25.63;;;;;;;2.48;87.84;100262.59;5081632;28;20524;-84
2020/12/02 02:32:08;;;;;;;29.13;23.90;;;;;;;2.46;87.93;100264.47;5092517;28;20055;-84
2020/12/02 02:35:12;;;;;;;26.88;23.95;;;;;;;2.48;87.75;100263.44;5092817;28;20059;-85
2020/12/02 02:38:19;;;;;;;28.83;24.30;;;;;;;2.45;87.71;100262.75;5092627;28;20485;-87
2020/12/02 02:41:27;;;;;;;28.63;24.05;;;;;;;2.44;87.71;100263.69;5072027;28;20488;-87
2020/12/02 02:44:31;;;;;;;30.88;26.02;;;;;;;2.38;87.83;100264.88;5073500;28;20386;-85
2020/12/02 02:47:36;;;;;;;29.38;23.75;;;;;;;2.38;88.11;100264.88;5084755;28;20100;-86
2020/12/02 02:50:40;;;;;;;27.67;24.40;;;;;;;2.45;88.21;100260.97;5095846;28;20044;-85
2020/12/02 02:53:45;;;;;;;28.90;24.98;;;;;;;2.50;87.67;100258.91;5096384;28;20055;-84
2020/12/02 02:56:49;;;;;;;27.77;23.42;;;;;;;2.52;87.49;100253.50;5084337;28;20047;-86
2020/12/02 02:59:54;;;;;;;26.58;23.15;;;;;;;2.47;87.45;100250.25;5072736;28;20048;-86
2020/12/02 03:02:58;;;;;;;25.35;22.50;;;;;;;2.45;87.45;100252.16;5096775;28;20044;-86
2020/12/02 03:06:04;;;;;;;25.23;21.73;;;;;;;2.43;87.18;100248.75;5084295;28;20059;-86
2020/12/02 03:09:11;;;;;;;24.00;20.40;;;;;;;2.39;87.36;100247.22;5084119;28;20504;-84
2020/12/02 03:12:17;;;;;;;25.95;22.13;;;;;;;2.34;87.64;100238.66;5095526;28;20145;-85
2020/12/02 03:15:22;;;;;;;23.45;19.70;;;;;;;2.37;88.03;100241.97;5072577;28;20059;-85
2020/12/02 03:18:26;;;;;;;25.33;21.45;;;;;;;2.30;88.20;100242.41;5083880;28;20500;-86
2020/12/02 03:21:30;;;;;;;24.55;21.08;;;;;;;2.29;88.40;100246.00;5095206;28;20063;-86
2020/12/02 03:24:35;;;;;;;24.45;20.35;;;;;;;2.24;88.11;100251.56;5084031;28;20058;-85
2020/12/02 03:27:39;;;;;;;24.00;20.60;;;;;;;2.23;88.18;100244.56;5095518;28;20051;-84
2020/12/02 03:30:44;;;;;;;24.50;21.77;;;;;;;2.17;88.73;100239.63;5096337;28;20051;-87
2020/12/02 03:33:48;;;;;;;26.90;22.27;;;;;;;2.22;88.87;100242.84;5084509;28;20059;-87
2020/12/02 03:36:53;;;;;;;24.45;20.90;;;;;;;2.17;88.67;100233.47;5083814;28;20062;-86
2020/12/02 03:39:57;;;;;;;23.70;20.95;;;;;;;2.20;88.83;100231.47;5095371;28;20051;-84
2020/12/02 03:43:01;;;;;;;25.30;21.83;;;;;;;2.17;88.33;100236.97;5095165;28;20047;-85
2020/12/02 03:46:18;;;;;;;23.83;20.80;;;;;;;2.26;88.67;100227.66;5095329;28;20051;-86
2020/12/02 03:49:22;;;;;;;23.20;19.63;;;;;;;2.33;88.99;100229.88;5095004;28;20043;-87
2020/12/02 03:52:26;;;;;;;;;;;;;;;2.24;88.47;100221.59;5083234;28;20059;-86
2020/12/02 03:55:30;;;;;;;22.67;19.65;;;;;;;2.23;88.59;100217.22;5094681;28;20278;-86
2020/12/02 03:58:35;;;;;;;24.02;20.50;;;;;;;2.18;88.86;100211.31;5094881;28;20055;-83
2020/12/02 04:01:39;;;;;;;23.88;20.70;;;;;;;2.16;89.15;100208.78;5095018;28;20389;-84
2020/12/02 04:04:43;;;;;;;22.40;20.00;;;;;;;2.16;89.16;100215.84;5094847;28;20468;-85
2020/12/02 04:07:47;;;;;;;21.45;19.15;;;;;;;2.19;88.40;100205.97;5094386;28;20055;-85
2020/12/02 04:10:52;;;;;;;23.00;20.17;;;;;;;2.12;89.07;100209.03;5082882;28;20055;-86
2020/12/02 04:13:56;;;;;;;22.63;20.15;;;;;;;2.12;89.17;100198.44;5094731;28;20062;-85
2020/12/02 04:17:01;;;;;;;21.90;19.50;;;;;;;2.13;88.92;100192.19;5094360;28;20050;-86
2020/12/02 04:20:06;;;;;;;21.85;19.38;;;;;;;2.19;89.21;100192.72;5095530;28;20051;-86
2020/12/02 04:23:10;;;;;;;23.10;19.75;;;;;;;2.24;89.10;100184.53;5094702;28;20406;-80
2020/12/02 04:26:14;;;;;;;23.13;19.85;;;;;;;2.18;89.08;100185.72;5094308;28;20158;-84
2020/12/02 04:29:19;;;;;;;20.98;18.75;;;;;;;2.23;88.93;100186.31;5094259;28;20048;-86
2020/12/02 04:32:24;;;;;;;20.80;18.58;;;;;;;2.19;88.82;100182.13;5094252;28;20051;-85
2020/12/02 04:35:28;;;;;;;21.65;19.40;;;;;;;2.06;89.28;100181.09;5094206;28;20073;-86
2020/12/02 04:38:32;;;;;;;21.02;18.65;;;;;;;2.18;89.51;100172.47;5094229;28;20055;-85
2020/12/02 04:41:36;;;;;;;22.42;20.02;;;;;;;2.17;88.65;100173.44;5082809;28;20055;-84
2020/12/02 04:44:46;;;;;;;20.15;18.05;;;;;;;2.27;88.92;100176.41;5094220;28;20381;-83
2020/12/02 04:47:58;;;;;;;21.00;18.75;;;;;;;2.29;88.64;100180.69;5094313;28;20063;-86
2020/12/02 04:51:11;;;;;;;22.23;19.83;;;;;;;2.24;88.70;100181.88;5094292;28;20494;-85
2020/12/02 04:54:15;;;;;;;21.30;18.92;;;;;;;2.12;89.23;100186.06;5093333;28;20055;-85
2020/12/02 04:57:19;;;;;;;22.67;19.40;;;;;;;2.04;89.30;100193.56;5081966;28;20055;-86
2020/12/02 05:00:32;;;;;;;22.33;19.13;;;;;;;1.96;89.53;100196.66;5071160;28;20051;-85
2020/12/02 05:03:49;;;;;;;21.52;18.55;;;;;;;1.91;89.83;100184.59;5081396;28;20389;-86
2020/12/02 05:07:13;;;;;;;22.55;19.17;;;;;;;1.88;90.33;100174.19;5070505;28;20067;-85
2020/12/02 05:10:18;;;;;;;23.67;20.55;;;;;;;1.95;90.49;100175.56;5093632;28;20385;-86
2020/12/02 05:13:25;;;;;;;22.55;19.92;;;;;;;1.93;90.46;100169.47;5082222;28;20067;-87
2020/12/02 05:16:30;;;;;;;22.83;19.88;;;;;;;1.91;90.57;100168.72;5070360;28;20075;-85
2020/12/02 05:19:34;;;;;;;20.38;17.90;;;;;;;1.87;90.68;100167.19;5082099;28;20071;-85
2020/12/02 05:22:42;;;;;;;20.73;18.23;;;;;;;1.85;90.74;100172.56;5093482;28;20460;-86
2020/12/02 05:25:46;;;;;;;18.98;16.48;;;;;;;1.77;91.03;100166.00;5093681;28;20055;-86
2020/12/02 05:28:50;;;;;;;19.58;17.42;;;;;;;1.68;91.13;100169.97;5081875;28;20051;-87
2020/12/02 05:32:03;;;;;;;20.13;17.33;;;;;;;1.62;91.17;100159.75;5094357;28;20051;-86
2020/12/02 05:35:14;;;;;;;20.48;18.08;;;;;;;1.55;91.98;100161.03;5081570;28;20071;-85
2020/12/02 05:38:28;;;;;;;20.00;17.42;;;;;;;1.55;92.21;100162.81;5070279;28;20055;-86
2020/12/02 05:41:33;;;;;;;30.83;23.92;;;;;;;1.53;92.16;100162.88;5081604;28;20051;-85
2020/12/02 05:44:42;;;;;;;23.00;19.10;;;;;;;1.51;92.39;100153.31;5082177;28;20059;-86
2020/12/02 05:47:51;;;;;;;21.02;17.23;;;;;;;1.54;92.45;100153.16;5082202;28;20595;-85
2020/12/02 05:50:56;;;;;;;21.23;17.52;;;;;;;1.47;92.68;100163.22;5095106;28;20071;-85
2020/12/02 05:54:08;;;;;;;20.85;18.08;;;;;;;1.43;92.81;100160.81;5092863;28;20071;-86
2020/12/02 05:57:17;;;;;;;21.63;18.25;;;;;;;1.38;93.08;100155.78;5081885;28;20512;-84
2020/12/02 06:00:21;;;;;;;23.23;19.58;;;;;;;1.35;93.13;100155.94;5082049;28;20496;-86
2020/12/02 06:03:32;;;;;;;111.32;77.28;;;;;;;1.40;93.38;100164.47;5093616;28;20050;-85
2020/12/02 06:06:36;;;;;;;35.53;27.17;;;;;;;1.38;93.64;100155.78;5081321;28;20044;-85
2020/12/02 06:09:46;;;;;;;22.35;19.13;;;;;;;1.40;93.51;100156.56;5093893;28;20067;-85
2020/12/02 06:12:50;;;;;;;19.73;17.25;;;;;;;1.43;93.57;100158.19;5081662;28;20109;-85
2020/12/02 06:15:54;;;;;;;21.02;16.92;;;;;;;1.42;93.76;100146.75;5097572;28;20386;-86
2020/12/02 06:19:09;;;;;;;18.02;16.08;;;;;;;1.46;93.55;100155.38;5111042;28;20047;-78
2020/12/02 06:22:30;;;;;;;18.20;15.65;;;;;;;1.44;93.71;100158.09;5081963;28;20047;-81
2020/12/02 06:25:55;;;;;;;19.75;15.38;;;;;;;1.37;93.62;100156.72;5078900;28;20063;-81
2020/12/02 06:29:00;;;;;;;19.75;15.75;;;;;;;1.28;93.65;100151.91;5074679;28;20059;-78
2020/12/02 06:32:21;;;;;;;16.30;14.30;;;;;;;1.24;93.50;100147.72;5075393;28;20047;-78
2020/12/02 06:35:26;;;;;;;16.80;15.00;;;;;;;1.16;94.04;100149.94;5087768;28;20047;-79
2020/12/02 06:38:31;;;;;;;20.98;16.23;;;;;;;1.18;94.38;100154.19;5081733;28;20051;-84
2020/12/02 06:41:53;;;;;;;17.25;14.77;;;;;;;1.21;94.47;100164.59;5082487;28;20047;-78
2020/12/02 06:45:15;;;;;;;17.13;14.80;;;;;;;1.25;94.59;100160.00;5064775;28;20051;-85
2020/12/02 06:48:37;;;;;;;19.27;16.15;;;;;;;1.28;94.54;100167.78;5064716;28;20063;-76
2020/12/02 06:51:55;;;;;;;19.13;15.73;;;;;;;1.32;94.10;100166.66;5063826;28;20051;-77
2020/12/02 06:55:23;;;;;;;20.23;16.05;;;;;;;1.27;94.34;100166.91;5063447;28;20075;-80
2020/12/02 06:58:27;;;;;;;20.02;16.60;;;;;;;1.28;94.31;100170.44;5075746;28;20081;-83
2020/12/02 07:01:37;;;;;;;22.70;18.20;;;;;;;1.28;94.33;100170.44;5066966;28;20046;-77
2020/12/02 07:04:42;;;;;;;25.02;20.50;;;;;;;1.30;94.30;100171.19;5077330;28;20047;-79
2020/12/02 07:07:47;;;;;;;25.35;21.00;;;;;;;1.31;94.60;100167.59;5075381;28;20058;-87
2020/12/02 07:11:10;;;;;;;23.77;19.67;;;;;;;1.38;94.39;100168.16;5087203;28;20068;-79
2020/12/02 07:14:20;;;;;;;20.20;16.90;;;;;;;1.42;94.43;100167.03;5064226;28;20048;-80
2020/12/02 07:17:24;;;;;;;24.42;19.55;;;;;;;1.37;94.30;100167.28;5063875;28;20059;-79
2020/12/02 07:20:28;;;;;;;23.25;18.85;;;;;;;1.31;94.29;100167.59;5064047;28;20067;-79
2020/12/02 07:23:34;;;;;;;23.48;18.40;;;;;;;1.29;94.48;100161.53;5062749;28;20410;-80
2020/12/02 07:26:39;;;;;;;25.15;20.63;;;;;;;1.33;94.65;100173.69;5062843;28;20417;-79
2020/12/02 07:29:43;;;;;;;29.83;22.13;;;;;;;1.39;94.86;100165.41;5075486;28;20358;-79
2020/12/02 07:32:47;;;;;;;27.83;20.65;;;;;;;1.44;94.68;100167.81;5075084;28;20485;-79
2020/12/02 07:36:15;;;;;;;26.15;19.77;;;;;;;1.51;94.69;100167.38;5085999;28;20055;-81
2020/12/02 07:39:23;;;;;;;22.70;18.67;;;;;;;1.51;94.23;100164.75;5071540;28;20051;-81
2020/12/02 07:42:41;;;;;;;23.23;18.55;;;;;;;1.52;94.30;100177.03;5085695;28;20595;-81
2020/12/02 07:45:45;;;;;;;23.10;17.95;;;;;;;1.55;94.32;100176.88;5083956;28;20048;-81
2020/12/02 07:48:57;;;;;;;20.80;17.33;;;;;;;1.58;94.33;100173.22;5075078;28;20402;-79
2020/12/02 07:52:16;;;;;;;21.20;17.15;;;;;;;1.51;94.13;100177.97;5074425;28;20501;-77
2020/12/02 07:55:31;;;;;;;22.02;15.95;;;;;;;1.50;93.93;100176.28;5074175;28;20051;-77
2020/12/02 07:58:41;;;;;;;19.88;16.60;;;;;;;1.49;93.84;100179.84;5073980;28;20394;-80
2020/12/02 08:02:06;;;;;;;21.58;18.15;;;;;;;1.49;93.90;100179.84;5074013;28;20394;-81
2020/12/02 08:05:53;;;;;;;21.15;17.27;;;;;;;1.51;93.66;100185.91;5081295;28;20048;-80
2020/12/02 08:08:57;;;;;;;20.55;17.88;;;;;;;1.55;93.85;100181.31;5070629;28;20047;-78
2020/12/02 08:12:06;;;;;;;23.85;18.13;;;;;;;1.55;93.64;100182.19;5061980;28;20517;-81
2020/12/02 08:15:12;;;;;;;19.75;16.98;;;;;;;1.60;93.59;100181.94;5051034;28;20103;-76
2020/12/02 08:18:20;;;;;;;20.45;16.88;;;;;;;1.78;93.37;100187.06;5051226;28;20529;-81
2020/12/02 08:21:28;;;;;;;19.75;16.70;;;;;;;1.87;93.03;100189.22;5085719;28;20131;-83
2020/12/02 08:24:42;;;;;;;20.30;16.77;;;;;;;2.00;92.80;100180.59;5067734;28;20504;-79
2020/12/02 08:27:52;;;;;;;20.25;17.85;;;;;;;2.13;92.31;100182.47;5062595;28;20044;-79
2020/12/02 08:31:26;;;;;;;21.25;18.05;;;;;;;2.30;91.75;100186.81;5065611;28;20063;-79
2020/12/02 08:34:36;;;;;;;20.98;17.80;;;;;;;2.31;91.15;100199.13;5060908;28;20398;-79
2020/12/02 08:37:42;;;;;;;19.75;16.15;;;;;;;2.43;90.51;100206.38;5060253;28;20056;-84
2020/12/02 08:40:50;;;;;;;21.80;17.33;;;;;;;2.49;89.86;100200.72;5075040;28;20057;-77
2020/12/02 08:44:22;;;;;;;19.02;16.20;;;;;;;2.60;89.50;100204.47;5063271;28;20055;-80
2020/12/02 08:47:26;;;;;;;18.58;15.82;;;;;;;2.74;89.07;100202.81;5070292;28;20529;-79
2020/12/02 08:50:31;;;;;;;18.92;15.05;;;;;;;2.92;88.27;100207.88;5092487;28;20436;-74
2020/12/02 08:53:37;;;;;;;17.02;14.80;;;;;;;3.08;87.15;100200.75;5093095;28;20067;-79
2020/12/02 08:56:41;;;;;;;17.55;14.85;;;;;;;3.18;87.02;100201.03;5093448;28;20067;-77
2020/12/02 08:59:45;;;;;;;16.63;14.25;;;;;;;3.28;86.02;100208.34;5070161;28;20047;-78
2020/12/02 09:02:49;;;;;;;16.63;13.38;;;;;;;3.28;85.53;100202.19;5093383;28;20047;-80
2020/12/02 09:05:54;;;;;;;17.35;14.18;;;;;;;3.26;85.44;100204.91;5070020;28;20611;-78
2020/12/02 09:08:58;;;;;;;16.42;13.52;;;;;;;3.26;85.06;100202.28;5061818;28;20052;-79
2020/12/02 09:12:02;;;;;;;18.35;13.93;;;;;;;3.24;85.28;100200.66;5080001;28;20059;-79
2020/12/02 09:15:06;;;;;;;15.40;13.48;;;;;;;3.24;85.46;100206.81;5093080;28;20058;-82
2020/12/02 09:18:11;;;;;;;15.50;13.75;;;;;;;3.22;85.41;100200.75;5070061;28;20043;-80
2020/12/02 09:21:16;;;;;;;16.77;14.75;;;;;;;3.29;85.35;100210.06;5091587;28;20445;-80
2020/12/02 09:24:20;;;;;;;18.60;15.73;;;;;;;3.28;85.16;100213.63;5082745;28;20067;-77
2020/12/02 09:27:25;;;;;;;18.17;16.02;;;;;;;3.18;85.64;100209.00;5091451;28;20404;-77
2020/12/02 09:30:29;;;;;;;21.58;17.73;;;;;;;3.34;85.23;100216.88;5033304;22;20091;-77
2020/12/02 09:33:35;;;;;;;18.88;16.58;;;;;;;3.47;84.65;100207.22;4932540;29;20055;-78
2020/12/02 09:36:40;;;;;;;21.42;18.92;;;;;;;3.55;83.97;100204.97;4932516;29;20063;-78
2020/12/02 09:39:44;;;;;;;20.02;17.58;;;;;;;3.70;83.54;100202.19;4933481;29;20055;-77
2020/12/02 09:43:04;;;;;;;19.73;17.27;;;;;;;3.71;82.52;100213.69;4933228;29;20047;-78
2020/12/02 09:46:17;;;;;;;17.77;15.88;;;;;;;3.74;82.95;100200.22;4932642;29;20047;-79
2020/12/02 09:49:22;;;;;;;17.77;14.30;;;;;;;3.65;83.32;100206.97;4933253;29;20508;-80
2020/12/02 09:52:44;;;;;;;16.60;13.85;;;;;;;3.56;83.33;100206.66;4933227;29;20050;-78
2020/12/02 09:55:49;;;;;;;16.10;13.82;;;;;;;3.52;83.84;100206.00;4933437;29;20540;-78
2020/12/02 09:58:57;;;;;;;17.63;13.95;;;;;;;3.40;83.85;100203.25;4933557;29;20504;-77
2020/12/02 10:02:21;;;;;;;16.13;14.02;;;;;;;3.28;84.20;100204.84;4933333;29;20058;-76
2020/12/02 10:06:04;;;;;;;17.60;15.48;;;;;;;3.24;84.31;100198.00;4933371;29;20070;-77
2020/12/02 10:09:26;;;;;;;18.58;15.73;;;;;;;3.17;84.49;100197.53;4933440;29;20054;-78
2020/12/02 10:13:02;;;;;;;19.40;15.40;;;;;;;3.20;84.91;100200.00;4932941;29;20055;-78
2020/12/02 10:16:22;;;;;;;20.38;15.65;;;;;;;3.18;84.95;100206.34;4933086;29;20051;-77
2020/12/02 10:19:47;;;;;;;16.52;14.73;;;;;;;3.12;85.04;100207.56;4933040;29;20055;-78
2020/12/02 10:23:24;;;;;;;19.08;15.32;;;;;;;3.00;85.28;100200.34;4933524;29;20051;-78
2020/12/02 10:26:50;;;;;;;21.80;16.17;;;;;;;3.01;85.88;100194.06;4951044;29;20062;-78
2020/12/02 10:30:13;;;;;;;23.63;16.58;;;;;;;2.99;86.04;100195.09;4951797;29;20055;-78
2020/12/02 10:33:28;;;;;;;20.83;15.95;;;;;;;2.93;86.29;100200.78;4951228;29;20046;-79
2020/12/02 10:36:37;;;;;;;22.73;15.35;;;;;;;2.88;86.30;100182.50;4950705;29;20516;-79
2020/12/02 10:39:41;;;;;;;20.52;16.10;;;;;;;2.77;86.88;100184.06;4951841;29;20512;-77
2020/12/02 10:43:13;;;;;;;22.92;15.85;;;;;;;2.84;87.10;100188.09;4951468;29;20508;-79
2020/12/02 10:46:31;;;;;;;21.80;14.93;;;;;;;2.85;86.75;100179.16;4952000;29;20070;-78
2020/12/02 10:49:36;;;;;;;22.77;15.70;;;;;;;2.88;86.68;100174.56;4951874;29;20066;-77
2020/12/02 10:52:41;;;;;;;23.00;14.52;;;;;;;2.85;87.11;100176.53;4950704;29;20046;-78
2020/12/02 10:55:45;;;;;;;22.50;14.98;;;;;;;2.86;87.05;100178.25;4951490;29;20059;-76
2020/12/02 10:58:54;;;;;;;16.77;12.73;;;;;;;2.89;87.06;100178.06;4950651;29;20070;-75
2020/12/02 11:01:58;;;;;;;16.42;12.27;;;;;;;2.90;87.01;100179.75;4953527;28;20050;-79
2020/12/02 11:05:05;;;;;;;16.95;12.90;;;;;;;2.96;86.34;100192.66;4954265;29;20409;-77
2020/12/02 11:08:40;;;;;;;17.25;13.45;;;;;;;2.93;86.04;100185.75;4954783;29;20046;-77
2020/12/02 11:12:21;;;;;;;17.65;13.98;;;;;;;2.86;86.93;100197.66;4974287;28;20405;-79
2020/12/02 11:15:48;;;;;;;17.63;13.18;;;;;;;2.84;87.04;100178.31;4953709;29;20051;-79
2020/12/02 11:19:14;;;;;;;15.63;11.98;;;;;;;2.91;86.82;100181.47;4954647;29;20164;-77
2020/12/02 11:22:51;;;;;;;16.50;13.07;;;;;;;2.88;86.75;100157.78;4954359;29;20482;-79
2020/12/02 11:26:29;;;;;;;13.68;11.13;;;;;;;2.85;87.00;100161.47;4954614;29;20054;-79
2020/12/02 11:29:34;;;;;;;13.07;11.68;;;;;;;2.78;87.21;100144.25;4954384;29;20078;-80
2020/12/02 11:33:02;;;;;;;14.80;11.95;;;;;;;2.75;87.52;100146.22;4954346;29;20050;-80
2020/12/02 11:36:44;;;;;;;13.85;11.32;;;;;;;2.75;87.67;100144.41;4954538;29;20405;-78
2020/12/02 11:40:08;;;;;;;15.40;12.48;;;;;;;2.73;87.54;100146.31;5033810;28;20056;-79
2020/12/02 11:43:25;;;;;;;14.63;11.23;;;;;;;2.72;87.83;100152.53;5033665;28;20053;-78
2020/12/02 11:46:34;;;;;;;13.07;11.10;;;;;;;2.73;88.07;100151.59;5033394;28;20056;-80
2020/12/02 11:49:47;;;;;;;12.30;10.95;;;;;;;2.72;88.22;100144.59;5033569;28;20152;-80
2020/12/02 11:53:01;;;;;;;11.75;10.52;;;;;;;2.53;88.55;100158.06;5033269;28;20053;-77
2020/12/02 11:56:10;;;;;;;14.02;12.52;;;;;;;2.45;89.08;100146.19;5033324;28;20148;-81
2020/12/02 11:59:34;;;;;;;14.98;11.75;;;;;;;2.51;89.60;100145.84;5033332;28;20443;-77
2020/12/02 12:02:52;;;;;;;13.65;11.30;;;;;;;2.53;89.55;100150.13;5033040;28;20141;-77
2020/12/02 12:06:08;;;;;;;12.95;11.65;;;;;;;2.53;89.26;100149.28;5033288;28;20057;-78
2020/12/02 12:09:21;;;;;;;13.82;11.23;;;;;;;2.65;89.34;100143.25;5033289;28;20137;-78
2020/12/02 12:12:44;;;;;;;13.68;11.32;;;;;;;2.70;88.83;100138.53;5032804;28;20052;-79
2020/12/02 12:15:55;;;;;;;14.48;11.73;;;;;;;2.74;89.15;100133.91;4989811;28;20424;-78
2020/12/02 12:19:20;;;;;;;13.38;11.95;;;;;;;2.82;88.66;100142.25;4954557;29;20500;-78
2020/12/02 12:22:34;;;;;;;14.00;11.93;;;;;;;2.87;88.41;100143.69;4953850;29;20512;-78
2020/12/02 12:25:38;;;;;;;14.63;12.80;;;;;;;2.81;88.26;100133.47;4954037;29;20054;-79
2020/12/02 12:28:43;;;;;;;16.33;13.77;;;;;;;2.71;88.70;100127.00;4952639;29;20401;-78
2020/12/02 12:31:56;;;;;;;15.38;13.18;;;;;;;2.75;88.28;100132.97;4953028;29;20058;-78
2020/12/02 12:35:26;;;;;;;17.85;14.35;;;;;;;2.78;88.55;100143.38;4953694;29;20054;-78
2020/12/02 12:38:35;;;;;;;17.55;14.70;;;;;;;2.69;88.91;100134.19;4953275;29;20429;-79
2020/12/02 12:41:48;;;;;;;20.80;15.90;;;;;;;2.73;88.80;100148.09;4953668;29;20054;-80
2020/12/02 12:44:55;;;;;;;22.50;15.47;;;;;;;2.68;88.98;100147.50;4953911;29;20054;-80
2020/12/02 12:48:01;;;;;;;19.15;13.90;;;;;;;2.57;89.35;100150.78;4953553;29;20066;-85
2020/12/02 12:51:08;;;;;;;17.08;13.60;;;;;;;2.64;89.61;100152.16;4953786;29;20055;-78
2020/12/02 12:54:16;;;;;;;15.57;13.25;;;;;;;2.72;89.49;100149.03;4953508;29;20054;-77
2020/12/02 12:57:25;;;;;;;16.40;13.75;;;;;;;2.78;89.19;100148.69;4952622;29;20058;-77
2020/12/02 13:00:30;;;;;;;16.90;14.82;;;;;;;2.81;89.04;100159.97;4952292;29;20402;-79
2020/12/02 13:03:36;;;;;;;15.85;13.63;;;;;;;2.87;88.53;100159.59;4952556;29;20062;-78
2020/12/02 13:06:51;;;;;;;16.52;14.55;;;;;;;2.91;88.49;100155.84;4952991;29;20062;-77
2020/12/02 13:10:13;;;;;;;16.98;14.75;;;;;;;2.89;88.40;100157.69;4953114;29;20051;-77
2020/12/02 13:13:43;;;;;;;20.63;15.70;;;;;;;2.88;88.41;100137.44;4953345;29;20070;-78
2020/12/02 13:17:03;;;;;;;18.55;16.23;;;;;;;2.90;88.52;100137.34;4952932;29;20066;-77
2020/12/02 13:20:19;;;;;;;17.73;14.43;;;;;;;2.94;88.58;100137.06;4952255;29;20055;-78
2020/12/02 13:23:31;;;;;;;18.13;14.77;;;;;;;2.95;88.58;100141.44;4935348;29;20067;-78
2020/12/02 13:26:39;;;;;;;17.50;14.68;;;;;;;2.95;88.33;100141.44;4933526;29;20047;-79
2020/12/02 13:29:44;;;;;;;17.15;14.90;;;;;;;2.92;88.52;100136.31;4961168;28;20058;-79
2020/12/02 13:32:56;;;;;;;18.65;16.08;;;;;;;2.92;88.51;100144.25;4949961;29;20058;-76
2020/12/02 13:36:01;;;;;;;17.35;15.30;;;;;;;2.98;88.49;100158.97;4952470;29;20058;-76
2020/12/02 13:39:09;;;;;;;19.10;15.93;;;;;;;2.96;88.41;100153.72;4952950;29;20397;-76
2020/12/02 13:42:14;;;;;;;20.88;17.02;;;;;;;2.88;88.31;100150.69;4952601;29;20050;-76
2020/12/02 13:45:25;;;;;;;19.35;17.30;;;;;;;2.86;88.89;100149.09;4952306;29;20050;-76
2020/12/02 13:48:30;;;;;;;21.00;18.30;;;;;;;2.86;89.02;100154.38;4937672;29;20050;-76
2020/12/02 13:51:52;;;;;;;19.95;17.63;;;;;;;2.84;89.15;100154.47;4951753;29;20070;-77
2020/12/02 13:54:56;;;;;;;19.52;17.15;;;;;;;2.81;89.37;100141.41;4933790;29;20051;-77
2020/12/02 13:58:17;;;;;;;21.20;18.20;;;;;;;2.74;89.55;100139.22;4933095;29;20067;-76
2020/12/02 14:01:33;;;;;;;21.95;17.25;;;;;;;2.82;89.54;100129.00;4933431;29;20402;-77
2020/12/02 14:04:49;;;;;;;19.50;17.13;;;;;;;2.90;89.31;100148.81;4940110;29;20054;-82
2020/12/02 14:07:56;;;;;;;20.58;17.20;;;;;;;2.90;89.36;100140.00;4942202;29;20508;-78
2020/12/02 14:11:03;;;;;;;21.35;17.85;;;;;;;2.85;89.41;100134.97;4940653;29;20058;-77
2020/12/02 14:14:08;;;;;;;21.67;19.05;;;;;;;2.76;89.50;100140.84;4952381;29;20058;-77
2020/12/02 14:17:17;;;;;;;20.48;17.88;;;;;;;2.77;89.67;100133.72;4952281;29;20394;-77
2020/12/02 14:20:22;;;;;;;23.40;18.27;;;;;;;2.80;89.76;100136.19;4952084;29;20058;-78
2020/12/02 14:23:26;;;;;;;21.90;18.15;;;;;;;2.79;89.80;100134.50;4952039;29;20050;-80
2020/12/02 14:26:30;;;;;;;26.15;18.63;;;;;;;2.86;89.71;100138.50;4951399;29;20057;-80
2020/12/02 14:29:35;;;;;;;21.23;17.25;;;;;;;2.90;89.64;100143.50;4951868;29;20051;-79
2020/12/02 14:32:39;;;;;;;19.33;16.63;;;;;;;2.82;89.69;100129.00;4951771;29;20043;-78
2020/12/02 14:35:44;;;;;;;22.33;17.73;;;;;;;2.85;89.69;100129.69;4952168;28;20062;-78
2020/12/02 14:38:48;;;;;;;21.83;18.05;;;;;;;2.82;89.62;100129.00;4954517;29;20066;-77